Record high temperature 42.2°C Record low temperature -14.6°C Record high gust 76.2 km/h Record high average 96.8 km/h Record daily rain 63.7 mm Record low windchill -17.5°C Record high barometer 1046.0 hPa Record low barometer 960.0 hPa
Daily high pressure 1000.0 hPa Daily low pressure 999.0 hPa Daily low windchill 15.3°C Daily high heat index 17.0°C Daily high gust speed 12.2 kmh W Daily high average speed 7.6 kmh WSW

This page is updated from recent data collected by a WMR200 weather station Use the Reload or Refresh facility on your browser to retrieve the latest data.

Status report of weather station: Bienvenue sur la Station Météo de Godarville



Weather report/warning/Metars

Alexandroupoli Airport , Greece (LGAL) 40-51N 025-55E 3M
Jun 29, 2022 - 07:50 PM EDT / 2022.06.29 2350 UTC
Wind: Calm:0
Visibility: greater than 7 mile(s):0
Temperature: 71 F (22 C)
Dew Point: 62 F (17 C)
Relative Humidity: 73%
Pressure (altimeter): 29.88 in. Hg (1012 hPa)
ob: LGAL 292350Z 00000KT CAVOK 22/17 Q1012
cycle: 0

Charleroi / Gosselies, Belgium (EBCI) 50-28N 004-27E 192M
Jun 29, 2022 - 07:50 PM EDT / 2022.06.29 2350 UTC
Wind: from the SW (230 degrees) at 3 MPH (3 KT) (direction variable):0
Visibility: greater than 7 mile(s):0
Temperature: 62 F (17 C)
Dew Point: 48 F (9 C)
Relative Humidity: 59%
Pressure (altimeter): 29.88 in. Hg (1012 hPa)
ob: EBCI 292350Z 23003KT 180V260 CAVOK 17/09 Q1012 NOSIG
cycle: 0

Bruxelles National, Belgium (EBBR) 50-54N 004-32E 58M
Jun 29, 2022 - 07:50 PM EDT / 2022.06.29 2350 UTC
Wind: from the WNW (290 degrees) at 5 MPH (4 KT):0
Visibility: greater than 7 mile(s):0
Temperature: 60 F (16 C)
Dew Point: 50 F (10 C)
Relative Humidity: 67%
Pressure (altimeter): 29.85 in. Hg (1011 hPa)
ob: EBBR 292350Z 29004KT CAVOK 16/10 Q1011 NOSIG
cycle: 0

Koksijde, Belgium (EBFN) 51-05N 002-39E 9M
Jun 29, 2022 - 07:55 PM EDT / 2022.06.29 2355 UTC
Wind: from the WNW (290 degrees) at 7 MPH (6 KT):0
Visibility: greater than 7 mile(s):0
Sky conditions: mostly cloudy
Temperature: 59 F (15 C)
Dew Point: 51 F (11 C)
Relative Humidity: 76%
Pressure (altimeter): 29.88 in. Hg (1012 hPa)
ob: EBFN 292355Z AUTO 29006KT 9999 SCT030/// BKN100/// 15/11 Q1012 BLU
cycle: 0

Poznan, Poland (EPPO) 52-25N 016-50E 92M
Jun 29, 2022 - 08:00 PM EDT / 2022.06.30 0000 UTC
Wind: from the ENE (070 degrees) at 7 MPH (6 KT):0
Visibility: greater than 7 mile(s):0
Temperature: 68 F (20 C)
Dew Point: 57 F (14 C)
Relative Humidity: 68%
Pressure (altimeter): 29.94 in. Hg (1014 hPa)
ob: EPPO 300000Z 07006KT CAVOK 20/14 Q1014 
cycle: 0



Coucher du Soleil:
21:58:24

Lever de Lune:
05:23:42 29/06/22

Coucher de Lune:
22:42:50 29/06/22

Premier Quartier 7 juillet 2022
Pleine Lune 13 juillet 2022
Dernier Quartier 20 juillet 2022
Nouvelle Lune 28 juillet 2022
Âge de lune : 0 jours,17 heures,10 minutes,1%
Les heures du jour possible étaient aujourd’hui 16:24



Use the RELOAD facility on your browser to retrieve the latest data.

Click here for a daily update of the averages/extremes to date for the month
Created by "Weather Display" software version 10.37P at this start time/date 09:29:10 26/06/2022